createdAt,value
2022-11-29T00:00:47.257Z,13.07
2022-11-29T00:03:15.094Z,10.70
2022-11-29T00:05:41.825Z,10.07
2022-11-29T00:08:08.497Z,12.43
2022-11-29T00:10:38.277Z,13.00
2022-11-29T00:13:05.431Z,14.10
2022-11-29T00:15:36.118Z,13.63
2022-11-29T00:18:02.887Z,13.60
2022-11-29T00:20:30.259Z,12.98
2022-11-29T00:22:56.873Z,11.77
2022-11-29T00:25:23.615Z,12.57
2022-11-29T00:27:51.487Z,13.32
2022-11-29T00:30:19.686Z,12.27
2022-11-29T00:32:46.915Z,13.20
2022-11-29T00:35:13.912Z,12.23
2022-11-29T00:37:40.488Z,13.40
2022-11-29T00:40:07.842Z,12.60
2022-11-29T00:42:34.425Z,12.48
2022-11-29T00:45:01.007Z,12.52
2022-11-29T00:47:27.751Z,12.80
2022-11-29T00:49:54.364Z,11.90
2022-11-29T00:52:20.966Z,11.15
2022-11-29T00:54:47.607Z,11.77
2022-11-29T00:57:14.312Z,13.20
2022-11-29T00:59:41.174Z,11.93
2022-11-29T01:02:07.834Z,13.68
2022-11-29T01:04:34.613Z,12.55
2022-11-29T01:07:01.243Z,13.43
2022-11-29T01:09:27.880Z,11.25
2022-11-29T01:11:54.603Z,11.35
2022-11-29T01:14:21.193Z,10.43
2022-11-29T01:16:47.967Z,11.27
2022-11-29T01:19:14.587Z,11.30
2022-11-29T01:21:41.437Z,11.50
2022-11-29T01:24:08.053Z,11.13
2022-11-29T01:26:34.775Z,10.75
2022-11-29T01:29:01.435Z,11.05
2022-11-29T01:31:33.620Z,12.05
2022-11-29T01:34:02.745Z,12.40
2022-11-29T01:36:29.412Z,14.07
2022-11-29T01:38:56.217Z,12.02
2022-11-29T01:41:25.601Z,11.25
2022-11-29T01:44:01.075Z,10.80
2022-11-29T01:46:29.891Z,12.15
2022-11-29T01:49:00.981Z,11.80
2022-11-29T01:51:28.570Z,12.82
2022-11-29T01:53:55.487Z,11.93
2022-11-29T01:56:22.775Z,10.63
2022-11-29T01:58:49.397Z,12.15
2022-11-29T02:01:16.131Z,11.30
2022-11-29T02:03:43.353Z,14.38
2022-11-29T02:06:10.266Z,12.15
2022-11-29T02:08:39.716Z,12.63
2022-11-29T02:11:15.140Z,13.23
2022-11-29T02:14:23.705Z,12.45
2022-11-29T02:17:01.215Z,12.23
2022-11-29T02:19:40.855Z,12.10
2022-11-29T02:22:24.676Z,13.25
2022-11-29T02:25:17.283Z,12.88
2022-11-29T02:27:43.837Z,11.55
2022-11-29T02:30:21.162Z,11.82
2022-11-29T02:33:05.738Z,12.50
2022-11-29T02:35:50.337Z,11.70
2022-11-29T02:38:38.617Z,12.25
2022-11-29T02:41:05.140Z,15.05
2022-11-29T02:44:07.105Z,13.88
2022-11-29T02:47:15.256Z,12.57
2022-11-29T02:49:48.011Z,12.77
2022-11-29T02:52:39.161Z,12.98
2022-11-29T02:55:24.159Z,11.75
2022-11-29T02:57:50.772Z,12.38
2022-11-29T03:00:19.543Z,11.05
2022-11-29T03:02:51.943Z,11.70
2022-11-29T03:05:41.785Z,11.40
2022-11-29T03:08:18.786Z,11.27
2022-11-29T03:11:07.205Z,13.48
2022-11-29T03:13:42.665Z,11.93
2022-11-29T03:16:22.977Z,11.90
2022-11-29T03:19:07.966Z,11.68
2022-11-29T03:21:42.259Z,12.80
2022-11-29T03:24:18.738Z,10.77
2022-11-29T03:26:49.978Z,10.15
2022-11-29T03:29:27.522Z,11.23
2022-11-29T03:31:54.064Z,10.48
2022-11-29T03:34:23.656Z,11.57
2022-11-29T03:37:08.505Z,11.80
2022-11-29T03:39:57.631Z,10.90
2022-11-29T03:42:30.886Z,10.63
2022-11-29T03:45:13.832Z,11.23
2022-11-29T03:47:49.484Z,11.40
2022-11-29T03:50:23.830Z,11.32
2022-11-29T03:53:07.278Z,10.88
2022-11-29T03:55:49.696Z,11.60
2022-11-29T03:58:43.278Z,12.18
2022-11-29T04:01:21.967Z,13.02
2022-11-29T04:04:22.352Z,11.85
2022-11-29T04:07:01.644Z,11.45
2022-11-29T04:09:35.734Z,13.40
2022-11-29T04:12:20.635Z,11.90
2022-11-29T04:15:14.132Z,12.63
2022-11-29T04:18:19.127Z,11.98
2022-11-29T04:21:01.682Z,12.20
2022-11-29T04:23:49.875Z,11.75
2022-11-29T04:26:33.581Z,12.13
2022-11-29T04:29:07.477Z,12.80
2022-11-29T04:32:08.304Z,13.10
2022-11-29T04:35:02.195Z,11.95
2022-11-29T04:37:38.039Z,11.90
2022-11-29T04:40:16.833Z,12.23
2022-11-29T04:43:11.461Z,12.15
2022-11-29T04:45:44.233Z,12.00
2022-11-29T04:48:37.004Z,11.20
2022-11-29T04:51:25.079Z,12.77
2022-11-29T04:54:11.990Z,11.38
2022-11-29T04:57:10.956Z,11.25
2022-11-29T05:00:08.194Z,9.73
2022-11-29T05:03:00.624Z,10.48
2022-11-29T05:05:40.401Z,8.88
2022-11-29T05:08:32.638Z,10.27
2022-11-29T05:11:16.429Z,9.18
2022-11-29T05:13:46.072Z,9.48
2022-11-29T05:16:20.819Z,9.43
2022-11-29T05:18:58.053Z,9.43
2022-11-29T05:21:49.101Z,9.73
2022-11-29T05:24:43.859Z,9.30
2022-11-29T05:27:33.465Z,10.20
2022-11-29T05:30:12.214Z,9.77
2022-11-29T05:32:50.386Z,9.73
2022-11-29T05:35:44.930Z,9.93
2022-11-29T05:38:29.206Z,8.25
2022-11-29T05:41:03.979Z,10.03
2022-11-29T05:43:56.737Z,9.38
2022-11-29T05:46:51.287Z,10.40
2022-11-29T05:49:30.286Z,8.77
2022-11-29T05:52:16.355Z,10.85
2022-11-29T05:55:05.964Z,21.40
2022-11-29T05:57:54.260Z,25.17
2022-11-29T06:00:21.183Z,19.60
2022-11-29T06:03:03.739Z,20.77
2022-11-29T06:06:05.955Z,20.13
2022-11-29T06:08:53.692Z,18.67
2022-11-29T06:11:50.736Z,23.48
2022-11-29T06:14:27.866Z,24.73
2022-11-29T06:17:25.887Z,27.15
2022-11-29T06:20:13.111Z,19.83
2022-11-29T06:22:52.086Z,18.70
2022-11-29T06:25:43.310Z,17.17
2022-11-29T06:28:10.025Z,18.05
2022-11-29T06:30:52.089Z,16.95
2022-11-29T06:33:25.567Z,15.50
2022-11-29T06:36:12.343Z,15.27
2022-11-29T06:38:39.189Z,17.88
2022-11-29T06:41:06.172Z,14.75
2022-11-29T06:43:33.671Z,15.55
2022-11-29T06:46:06.336Z,16.85
2022-11-29T06:48:43.405Z,16.60
2022-11-29T06:51:19.253Z,17.00
2022-11-29T06:53:52.479Z,16.52
2022-11-29T06:56:41.848Z,16.30
2022-11-29T06:59:22.996Z,17.02
2022-11-29T07:02:11.110Z,16.85
2022-11-29T07:04:52.360Z,18.20
2022-11-29T07:07:21.596Z,16.15
2022-11-29T07:09:50.933Z,15.00
2022-11-29T07:12:18.423Z,32.78
2022-11-29T07:14:45.743Z,17.60
2022-11-29T07:17:18.409Z,17.55
2022-11-29T07:20:19.425Z,18.45
2022-11-29T07:23:14.204Z,18.02
2022-11-29T07:25:57.233Z,15.93
2022-11-29T07:28:52.083Z,17.92
2022-11-29T07:31:43.013Z,16.13
2022-11-29T07:34:38.685Z,16.13
2022-11-29T07:39:59.097Z,18.05
2022-11-29T07:42:36.677Z,19.65
2022-11-29T07:45:15.548Z,18.13
2022-11-29T07:47:42.119Z,16.65
2022-11-29T07:50:09.961Z,16.50
2022-11-29T07:52:36.626Z,17.45
2022-11-29T07:55:03.559Z,16.02
2022-11-29T07:57:30.290Z,16.48
2022-11-29T07:59:56.892Z,14.93
2022-11-29T08:02:29.942Z,15.82
2022-11-29T08:04:56.837Z,16.45
2022-11-29T08:07:23.978Z,17.15
2022-11-29T08:09:51.023Z,14.77
2022-11-29T08:12:17.697Z,16.85
2022-11-29T08:14:44.506Z,16.70
2022-11-29T08:17:11.221Z,13.18
2022-11-29T08:19:37.863Z,13.50
2022-11-29T08:22:04.505Z,16.65
2022-11-29T08:24:31.134Z,14.57
2022-11-29T08:26:57.776Z,12.95
2022-11-29T08:29:25.206Z,16.08
2022-11-29T08:31:56.116Z,14.75
2022-11-29T08:34:23.724Z,13.55
2022-11-29T08:36:51.472Z,14.70
2022-11-29T08:39:18.073Z,12.45
2022-11-29T08:41:44.711Z,14.00
2022-11-29T08:44:11.352Z,12.95
2022-11-29T08:46:56.601Z,13.80
2022-11-29T08:49:23.265Z,13.20
2022-11-29T08:51:53.260Z,12.50
2022-11-29T08:54:19.853Z,12.43
2022-11-29T08:59:33.683Z,12.73
2022-11-29T09:02:00.431Z,14.18
2022-11-29T09:04:27.074Z,11.60
2022-11-29T09:06:53.683Z,11.80
2022-11-29T09:09:20.283Z,12.38
2022-11-29T09:11:49.409Z,12.23
2022-11-29T09:14:17.058Z,11.73
2022-11-29T09:16:43.633Z,12.57
2022-11-29T09:19:10.346Z,12.95
2022-11-29T09:21:37.037Z,11.82
2022-11-29T09:24:06.432Z,13.70
2022-11-29T09:26:35.546Z,12.35
2022-11-29T09:29:04.228Z,12.35
2022-11-29T09:31:32.149Z,12.48
2022-11-29T09:33:59.060Z,11.38
2022-11-29T09:36:28.766Z,12.13
2022-11-29T09:38:56.983Z,12.18
2022-11-29T09:42:01.689Z,12.45
2022-11-29T09:45:04.407Z,12.70
2022-11-29T09:47:49.243Z,12.40
2022-11-29T09:50:21.567Z,13.10
2022-11-29T09:53:16.066Z,11.93
2022-11-29T09:55:56.108Z,11.80
2022-11-29T09:58:29.238Z,12.10
2022-11-29T10:01:01.124Z,10.80
2022-11-29T10:03:43.319Z,10.52
2022-11-29T10:06:19.005Z,9.98
2022-11-29T10:08:57.394Z,11.18
2022-11-29T10:11:30.011Z,13.48
2022-11-29T10:14:01.651Z,11.77
2022-11-29T10:17:14.974Z,11.00
2022-11-29T10:19:44.919Z,11.63
2022-11-29T10:22:23.000Z,10.25
2022-11-29T10:24:52.696Z,10.80
2022-11-29T10:27:23.730Z,10.77
2022-11-29T10:29:53.651Z,10.48
2022-11-29T10:32:21.415Z,10.88
2022-11-29T10:34:49.723Z,10.10
2022-11-29T10:37:20.456Z,10.13
2022-11-29T10:39:59.676Z,11.68
2022-11-29T10:42:46.895Z,10.70
2022-11-29T10:45:19.475Z,10.13
2022-11-29T10:47:47.268Z,9.63
2022-11-29T10:50:20.475Z,10.35
2022-11-29T10:52:47.131Z,10.27
2022-11-29T10:55:15.098Z,10.45
2022-11-29T10:58:09.761Z,11.13
2022-11-29T11:01:09.257Z,9.43
2022-11-29T11:03:39.381Z,9.68
2022-11-29T11:06:16.285Z,9.52
2022-11-29T11:08:57.404Z,11.48
2022-11-29T11:11:33.543Z,11.30
2022-11-29T11:14:06.698Z,10.90
2022-11-29T11:16:37.292Z,11.57
2022-11-29T11:19:24.066Z,9.75
2022-11-29T11:21:51.450Z,9.93
2022-11-29T11:24:25.060Z,9.80
2022-11-29T11:26:51.904Z,10.05
2022-11-29T11:29:21.068Z,10.32
2022-11-29T11:31:57.197Z,9.68
2022-11-29T11:34:30.151Z,10.15
2022-11-29T11:37:14.896Z,9.40
2022-11-29T11:39:43.192Z,8.98
2022-11-29T11:42:31.600Z,9.77
2022-11-29T11:44:58.693Z,10.48
2022-11-29T11:47:27.593Z,9.02
2022-11-29T11:50:00.279Z,9.00
2022-11-29T11:52:30.358Z,9.20
2022-11-29T11:55:21.677Z,9.38
2022-11-29T11:58:03.326Z,8.80
2022-11-29T12:01:05.212Z,8.73
2022-11-29T12:03:58.875Z,9.10
2022-11-29T12:06:46.760Z,9.43
2022-11-29T12:09:34.457Z,8.95
2022-11-29T12:12:18.151Z,9.35
2022-11-29T12:15:01.789Z,9.00
2022-11-29T12:17:35.583Z,8.95
2022-11-29T12:20:07.712Z,9.48
2022-11-29T12:22:43.844Z,8.70
2022-11-29T12:25:18.836Z,9.43
2022-11-29T12:27:45.536Z,9.65
2022-11-29T12:30:14.069Z,9.60
2022-11-29T12:32:46.494Z,9.27
2022-11-29T12:35:43.749Z,8.68
2022-11-29T12:38:22.609Z,9.55
2022-11-29T12:41:04.360Z,9.30
2022-11-29T12:43:50.114Z,9.80
2022-11-29T12:46:29.452Z,8.52
2022-11-29T12:49:22.048Z,8.85
2022-11-29T12:52:09.953Z,8.60
2022-11-29T12:54:45.967Z,9.35
2022-11-29T12:57:23.239Z,7.95
2022-11-29T13:00:04.961Z,8.57
2022-11-29T13:02:49.605Z,8.55
2022-11-29T13:05:20.256Z,8.50
2022-11-29T13:07:52.893Z,8.45
2022-11-29T13:10:28.553Z,8.88
2022-11-29T13:13:01.527Z,8.40
2022-11-29T13:15:31.348Z,7.80
2022-11-29T13:18:02.661Z,8.15
2022-11-29T13:20:51.059Z,8.07
2022-11-29T13:23:17.689Z,7.82
2022-11-29T13:25:47.755Z,7.97
2022-11-29T13:28:25.361Z,7.50
2022-11-29T13:30:52.872Z,7.82
2022-11-29T13:33:19.472Z,7.82
2022-11-29T13:36:08.078Z,7.80
2022-11-29T13:39:20.774Z,8.00
2022-11-29T13:42:24.810Z,7.97
2022-11-29T13:44:54.411Z,8.40
2022-11-29T13:47:21.305Z,8.00
2022-11-29T13:49:57.392Z,8.23
2022-11-29T13:52:43.402Z,8.68
2022-11-29T13:55:12.779Z,8.13
2022-11-29T13:58:16.702Z,8.30
2022-11-29T14:00:44.231Z,7.85
2022-11-29T14:03:28.129Z,7.82
2022-11-29T14:06:11.228Z,9.13
2022-11-29T14:11:42.703Z,8.35
2022-11-29T14:14:26.101Z,8.07
2022-11-29T14:16:56.047Z,8.48
2022-11-29T14:19:33.339Z,7.90
2022-11-29T14:22:06.427Z,7.55
2022-11-29T14:24:33.481Z,7.85
2022-11-29T14:27:06.257Z,7.40
2022-11-29T14:29:50.897Z,7.70
2022-11-29T14:32:49.807Z,7.43
2022-11-29T14:35:33.989Z,9.15
2022-11-29T14:38:06.581Z,7.20
2022-11-29T14:40:46.296Z,7.90
2022-11-29T14:43:22.312Z,8.13
2022-11-29T14:46:08.070Z,7.93
2022-11-29T14:48:35.025Z,7.65
2022-11-29T14:51:10.148Z,7.45
2022-11-29T14:53:37.596Z,7.70
2022-11-29T14:56:29.358Z,7.65
2022-11-29T14:59:33.542Z,8.13
2022-11-29T15:02:06.162Z,7.32
2022-11-29T15:04:38.075Z,7.65
2022-11-29T15:07:05.858Z,7.43
2022-11-29T15:09:34.339Z,7.90
2022-11-29T15:12:04.333Z,7.60
2022-11-29T15:14:49.352Z,6.90
2022-11-29T15:17:28.042Z,7.28
2022-11-29T15:20:13.301Z,7.75
2022-11-29T15:25:31.727Z,7.28
2022-11-29T15:28:03.417Z,7.05
2022-11-29T15:30:35.444Z,7.00
2022-11-29T15:33:04.917Z,7.18
2022-11-29T15:35:32.898Z,7.10
2022-11-29T15:37:59.554Z,7.07
2022-11-29T15:40:35.113Z,6.90
2022-11-29T15:43:14.228Z,7.10
2022-11-29T15:45:46.907Z,7.22
2022-11-29T15:48:13.615Z,7.13
2022-11-29T15:50:45.823Z,6.60
2022-11-29T15:53:17.673Z,7.10
2022-11-29T15:55:44.877Z,7.00
2022-11-29T15:58:13.699Z,7.35
2022-11-29T16:00:40.454Z,7.45
2022-11-29T16:03:17.214Z,7.45
2022-11-29T16:05:43.964Z,8.23
2022-11-29T16:08:17.714Z,7.63
2022-11-29T16:10:53.290Z,7.90
2022-11-29T16:13:31.488Z,7.80
2022-11-29T16:16:17.625Z,8.32
2022-11-29T16:18:46.171Z,7.30
2022-11-29T16:21:39.138Z,7.53
2022-11-29T16:24:21.300Z,7.32
2022-11-29T16:26:49.642Z,7.72
2022-11-29T16:29:21.894Z,8.55
2022-11-29T16:31:48.650Z,7.65
2022-11-29T16:34:33.138Z,7.93
2022-11-29T16:37:18.265Z,7.88
2022-11-29T16:39:46.650Z,8.02
2022-11-29T16:42:23.419Z,8.23
2022-11-29T16:45:00.470Z,8.20
2022-11-29T16:47:29.351Z,8.05
2022-11-29T16:50:01.934Z,7.65
2022-11-29T16:52:29.497Z,7.68
2022-11-29T16:54:56.179Z,7.60
2022-11-29T16:57:22.932Z,7.30
2022-11-29T16:59:49.997Z,7.47
2022-11-29T17:02:17.064Z,8.10
2022-11-29T17:04:44.329Z,10.85
2022-11-29T17:07:26.639Z,6.80
2022-11-29T17:09:53.572Z,6.95
2022-11-29T17:12:20.287Z,10.27
2022-11-29T17:14:47.168Z,7.32
2022-11-29T17:17:15.062Z,7.90
2022-11-29T17:19:41.723Z,6.95
2022-11-29T17:22:08.337Z,7.80
2022-11-29T17:24:34.990Z,8.18
2022-11-29T17:27:01.635Z,7.72
2022-11-29T17:29:28.274Z,8.10
2022-11-29T17:31:55.077Z,8.30
2022-11-29T17:34:21.858Z,8.27
2022-11-29T17:36:48.598Z,7.82
2022-11-29T17:39:15.861Z,7.25
2022-11-29T17:41:42.501Z,7.60
2022-11-29T17:44:09.544Z,7.28
2022-11-29T17:46:37.229Z,6.95
2022-11-29T17:49:07.099Z,7.20
2022-11-29T17:54:22.395Z,8.13
2022-11-29T17:56:49.655Z,7.25
2022-11-29T17:59:16.326Z,7.13
2022-11-29T18:01:43.036Z,7.55
2022-11-29T18:04:09.844Z,6.93
2022-11-29T18:06:39.433Z,7.18
2022-11-29T18:09:07.662Z,7.75
2022-11-29T18:11:43.310Z,8.18
2022-11-29T18:14:16.080Z,7.20
2022-11-29T18:16:43.067Z,7.15
2022-11-29T18:19:13.647Z,7.30
2022-11-29T18:21:40.418Z,7.38
2022-11-29T18:24:07.692Z,9.20
2022-11-29T18:26:35.472Z,7.40
2022-11-29T18:29:02.797Z,8.40
2022-11-29T18:31:31.663Z,6.90
2022-11-29T18:34:00.241Z,7.13
2022-11-29T18:36:32.023Z,6.82
2022-11-29T18:39:07.355Z,6.95
2022-11-29T18:41:34.417Z,7.82
2022-11-29T18:44:03.914Z,8.10
2022-11-29T18:46:32.835Z,7.15
2022-11-29T18:49:01.626Z,18.45
2022-11-29T18:51:30.046Z,19.73
2022-11-29T18:53:57.717Z,14.88
2022-11-29T18:56:26.771Z,11.93
2022-11-29T18:59:02.296Z,6.93
2022-11-29T19:01:30.769Z,8.02
2022-11-29T19:03:59.808Z,6.45
2022-11-29T19:06:31.711Z,7.93
2022-11-29T19:09:02.574Z,6.63
2022-11-29T19:11:31.175Z,6.07
2022-11-29T19:14:00.123Z,7.75
2022-11-29T19:16:28.850Z,10.43
2022-11-29T19:18:56.902Z,7.25
2022-11-29T19:21:25.094Z,9.25
2022-11-29T19:23:56.629Z,7.65
2022-11-29T19:26:25.249Z,7.47
2022-11-29T19:28:52.941Z,6.45
2022-11-29T19:31:23.964Z,6.50
2022-11-29T19:33:52.437Z,6.30
2022-11-29T19:36:27.449Z,6.20
2022-11-29T19:38:54.901Z,7.78
2022-11-29T19:41:23.043Z,6.40
2022-11-29T19:43:49.908Z,6.20
2022-11-29T19:46:18.950Z,6.65
2022-11-29T19:48:45.919Z,6.20
2022-11-29T19:51:15.702Z,8.00
2022-11-29T19:53:42.476Z,6.10
2022-11-29T19:56:12.856Z,6.13
2022-11-29T19:58:39.529Z,5.82
2022-11-29T20:01:07.146Z,6.72
2022-11-29T20:03:34.741Z,6.45
2022-11-29T20:06:02.037Z,7.88
2022-11-29T20:08:29.640Z,5.95
2022-11-29T20:10:56.524Z,6.88
2022-11-29T20:13:23.205Z,6.07
2022-11-29T20:15:49.902Z,6.68
2022-11-29T20:18:16.621Z,6.57
2022-11-29T20:20:43.213Z,7.25
2022-11-29T20:23:09.807Z,6.85
2022-11-29T20:25:36.759Z,6.65
2022-11-29T20:28:04.223Z,6.80
2022-11-29T20:30:31.026Z,6.80
2022-11-29T20:32:57.738Z,6.80
2022-11-29T20:35:24.587Z,6.95
2022-11-29T20:37:54.235Z,6.55
2022-11-29T20:40:24.687Z,6.72
2022-11-29T20:43:16.540Z,6.95
2022-11-29T20:45:43.516Z,6.75
2022-11-29T20:48:23.044Z,6.80
2022-11-29T20:51:01.607Z,6.53
2022-11-29T20:53:41.984Z,6.72
2022-11-29T20:56:10.524Z,6.45
2022-11-29T20:58:37.714Z,6.28
2022-11-29T21:01:05.251Z,7.38
2022-11-29T21:03:32.470Z,7.00
2022-11-29T21:06:02.446Z,8.48
2022-11-29T21:08:29.260Z,6.70
2022-11-29T21:11:02.448Z,7.05
2022-11-29T21:13:30.052Z,6.32
2022-11-29T21:15:57.277Z,6.65
2022-11-29T21:18:26.655Z,6.50
2022-11-29T21:21:10.393Z,7.10
2022-11-29T21:24:23.629Z,7.07
2022-11-29T21:26:51.560Z,7.28
2022-11-29T21:29:20.579Z,7.72
2022-11-29T21:31:49.491Z,7.18
2022-11-29T21:34:16.209Z,6.85
2022-11-29T21:36:43.715Z,6.72
2022-11-29T21:39:13.303Z,7.15
2022-11-29T21:41:39.971Z,7.20
2022-11-29T21:44:07.967Z,7.03
2022-11-29T21:46:35.233Z,7.45
2022-11-29T21:49:01.974Z,7.65
2022-11-29T21:51:28.698Z,20.15
2022-11-29T21:53:55.340Z,22.10
2022-11-29T21:56:22.036Z,14.18
2022-11-29T21:58:48.654Z,12.60
2022-11-29T22:01:20.242Z,12.63
2022-11-29T22:03:47.408Z,11.98
2022-11-29T22:06:20.422Z,11.73
2022-11-29T22:08:48.252Z,11.00
2022-11-29T22:11:16.762Z,10.80
2022-11-29T22:14:04.465Z,12.20
2022-11-29T22:16:31.156Z,12.43
2022-11-29T22:18:57.823Z,13.40
2022-11-29T22:21:24.537Z,11.82
2022-11-29T22:23:52.717Z,11.63
2022-11-29T22:26:21.278Z,11.48
2022-11-29T22:28:47.922Z,13.13
2022-11-29T22:31:14.697Z,12.02
2022-11-29T22:33:41.326Z,12.18
2022-11-29T22:36:10.340Z,12.32
2022-11-29T22:38:37.501Z,13.07
2022-11-29T22:41:09.286Z,15.63
2022-11-29T22:43:36.335Z,12.27
2022-11-29T22:46:07.280Z,14.40
2022-11-29T22:48:38.764Z,13.40
2022-11-29T22:51:11.783Z,14.60
2022-11-29T22:53:40.202Z,14.88
2022-11-29T22:56:08.857Z,14.20
2022-11-29T22:58:35.922Z,15.45
2022-11-29T23:01:11.110Z,12.00
2022-11-29T23:03:39.747Z,15.95
2022-11-29T23:06:08.876Z,15.65
2022-11-29T23:08:35.752Z,13.05
2022-11-29T23:11:06.571Z,13.13
2022-11-29T23:13:38.386Z,12.80
2022-11-29T23:16:06.696Z,12.80
2022-11-29T23:18:34.070Z,12.57
2022-11-29T23:21:08.395Z,11.63
2022-11-29T23:23:35.574Z,14.05
2022-11-29T23:26:04.486Z,14.43
2022-11-29T23:28:31.157Z,12.45
2022-11-29T23:30:59.043Z,14.75
2022-11-29T23:33:26.393Z,10.88
2022-11-29T23:36:03.336Z,11.05
2022-11-29T23:38:30.286Z,12.60
2022-11-29T23:40:56.913Z,12.50
2022-11-29T23:43:24.039Z,12.65
2022-11-29T23:45:50.912Z,12.93
2022-11-29T23:48:17.631Z,12.75
2022-11-29T23:50:44.303Z,12.55
2022-11-29T23:53:15.432Z,11.70
2022-11-29T23:55:42.556Z,13.73
2022-11-29T23:58:10.354Z,11.05
